createdAt,value
2023-02-21T00:00:33.812Z,7.62
2023-02-21T00:03:19.111Z,7.20
2023-02-21T00:06:04.658Z,7.62
2023-02-21T00:08:50.311Z,7.90
2023-02-21T00:11:35.830Z,7.00
2023-02-21T00:14:21.341Z,6.93
2023-02-21T00:17:06.937Z,7.15
2023-02-21T00:19:52.382Z,7.03
2023-02-21T00:22:38.061Z,6.50
2023-02-21T00:25:23.560Z,6.80
2023-02-21T00:28:09.129Z,6.62
2023-02-21T00:30:54.894Z,6.78
2023-02-21T00:33:40.621Z,6.62
2023-02-21T00:36:26.292Z,7.03
2023-02-21T00:39:11.879Z,6.97
2023-02-21T00:41:57.522Z,6.97
2023-02-21T00:44:43.161Z,7.57
2023-02-21T00:47:28.691Z,7.05
2023-02-21T00:50:14.313Z,6.70
2023-02-21T00:52:59.827Z,6.65
2023-02-21T00:55:45.432Z,5.85
2023-02-21T00:58:31.163Z,6.65
2023-02-21T01:01:17.220Z,6.20
2023-02-21T01:04:03.014Z,5.95
2023-02-21T01:06:48.476Z,6.45
2023-02-21T01:09:33.982Z,6.60
2023-02-21T01:12:19.716Z,6.70
2023-02-21T01:15:05.125Z,6.55
2023-02-21T01:17:50.786Z,7.22
2023-02-21T01:20:36.294Z,6.15
2023-02-21T01:23:21.859Z,7.68
2023-02-21T01:26:07.528Z,7.30
2023-02-21T01:28:52.994Z,7.53
2023-02-21T01:31:39.752Z,7.22
2023-02-21T01:34:26.025Z,7.65
2023-02-21T01:37:11.562Z,6.47
2023-02-21T01:39:57.806Z,7.05
2023-02-21T01:42:45.156Z,6.78
2023-02-21T01:45:59.182Z,6.18
2023-02-21T01:48:45.598Z,5.82
2023-02-21T01:51:33.605Z,7.00
2023-02-21T01:54:19.538Z,5.95
2023-02-21T01:57:05.215Z,6.95
2023-02-21T01:59:50.995Z,6.75
2023-02-21T02:02:48.695Z,6.97
2023-02-21T02:05:34.157Z,7.37
2023-02-21T02:08:19.560Z,6.95
2023-02-21T02:11:05.499Z,6.85
2023-02-21T02:13:36.609Z,6.85
2023-02-21T02:16:07.147Z,6.30
2023-02-21T02:18:58.386Z,7.22
2023-02-21T02:22:02.187Z,6.55
2023-02-21T02:24:38.390Z,6.60
2023-02-21T02:27:34.799Z,7.50
2023-02-21T02:30:21.998Z,6.45
2023-02-21T02:33:21.493Z,6.47
2023-02-21T02:36:01.803Z,6.93
2023-02-21T02:38:44.278Z,6.70
2023-02-21T02:41:25.015Z,6.37
2023-02-21T02:43:59.538Z,6.30
2023-02-21T02:46:34.898Z,5.97
2023-02-21T02:49:13.403Z,6.43
2023-02-21T02:51:40.484Z,6.62
2023-02-21T02:54:07.313Z,6.55
2023-02-21T02:59:08.616Z,6.12
2023-02-21T03:01:46.939Z,6.72
2023-02-21T03:04:22.999Z,6.85
2023-02-21T03:07:13.634Z,6.70
2023-02-21T03:09:49.521Z,6.35
2023-02-21T03:12:16.677Z,6.90
2023-02-21T03:14:51.759Z,6.35
2023-02-21T03:17:20.769Z,6.22
2023-02-21T03:19:49.185Z,6.10
2023-02-21T03:22:19.242Z,6.40
2023-02-21T03:24:48.344Z,5.80
2023-02-21T03:27:16.192Z,5.90
2023-02-21T03:29:43.914Z,6.22
2023-02-21T03:32:28.213Z,5.43
2023-02-21T03:34:55.128Z,5.20
2023-02-21T03:37:29.963Z,6.75
2023-02-21T03:39:56.832Z,5.43
2023-02-21T03:42:23.700Z,5.43
2023-02-21T03:44:50.662Z,5.40
2023-02-21T03:47:17.555Z,4.87
2023-02-21T03:49:44.528Z,4.62
2023-02-21T03:52:14.667Z,5.50
2023-02-21T03:54:41.720Z,5.50
2023-02-21T03:57:08.855Z,5.32
2023-02-21T03:59:35.716Z,4.80
2023-02-21T04:02:02.840Z,5.65
2023-02-21T04:04:29.741Z,5.55
2023-02-21T04:06:56.620Z,5.47
2023-02-21T04:09:23.608Z,6.12
2023-02-21T04:11:50.570Z,5.25
2023-02-21T04:14:17.489Z,5.20
2023-02-21T04:16:44.379Z,5.78
2023-02-21T04:19:11.311Z,5.70
2023-02-21T04:21:38.179Z,5.93
2023-02-21T04:24:05.342Z,6.10
2023-02-21T04:26:32.252Z,5.20
2023-02-21T04:28:59.115Z,5.28
2023-02-21T04:31:26.000Z,6.00
2023-02-21T04:34:05.864Z,4.90
2023-02-21T04:36:38.564Z,5.47
2023-02-21T04:39:05.979Z,5.35
2023-02-21T04:41:32.979Z,5.80
2023-02-21T04:43:59.901Z,5.87
2023-02-21T04:46:26.786Z,5.35
2023-02-21T04:48:54.125Z,5.65
2023-02-21T04:51:23.106Z,5.50
2023-02-21T04:53:50.447Z,5.93
2023-02-21T04:56:21.133Z,5.78
2023-02-21T04:58:48.905Z,5.72
2023-02-21T05:01:17.530Z,5.85
2023-02-21T05:03:44.822Z,5.68
2023-02-21T05:06:16.926Z,6.18
2023-02-21T05:08:43.804Z,6.43
2023-02-21T05:11:10.673Z,6.00
2023-02-21T05:13:37.489Z,5.80
2023-02-21T05:18:31.137Z,5.78
2023-02-21T05:20:58.004Z,5.85
2023-02-21T05:23:34.058Z,5.78
2023-02-21T05:26:05.305Z,6.15
2023-02-21T05:28:32.283Z,6.10
2023-02-21T05:31:01.054Z,5.97
2023-02-21T05:33:28.366Z,6.12
2023-02-21T05:35:55.798Z,6.07
2023-02-21T05:38:24.036Z,6.53
2023-02-21T05:40:50.979Z,6.57
2023-02-21T05:43:18.196Z,6.47
2023-02-21T05:45:45.210Z,5.90
2023-02-21T05:48:12.464Z,6.05
2023-02-21T05:50:39.902Z,6.37
2023-02-21T05:53:07.231Z,5.62
2023-02-21T05:55:34.162Z,6.40
2023-02-21T05:58:01.032Z,6.60
2023-02-21T06:00:29.988Z,6.82
2023-02-21T06:02:57.410Z,6.70
2023-02-21T06:05:24.571Z,6.47
2023-02-21T06:07:52.151Z,6.60
2023-02-21T06:10:20.166Z,6.70
2023-02-21T06:12:47.248Z,6.80
2023-02-21T06:15:14.565Z,7.15
2023-02-21T06:17:42.827Z,7.43
2023-02-21T06:20:13.323Z,7.00
2023-02-21T06:22:40.196Z,7.62
2023-02-21T06:25:07.718Z,6.82
2023-02-21T06:27:34.622Z,6.57
2023-02-21T06:30:01.478Z,6.55
2023-02-21T06:34:54.978Z,6.68
2023-02-21T06:37:21.879Z,6.62
2023-02-21T06:39:48.720Z,6.32
2023-02-21T06:44:46.682Z,5.53
2023-02-21T06:47:14.447Z,5.45
2023-02-21T06:49:41.568Z,5.70
2023-02-21T06:52:09.377Z,5.03
2023-02-21T06:54:38.620Z,5.87
2023-02-21T06:57:05.967Z,5.97
2023-02-21T06:59:32.873Z,5.20
2023-02-21T07:02:00.046Z,5.35
2023-02-21T07:04:27.033Z,4.50
2023-02-21T07:06:54.174Z,5.35
2023-02-21T07:09:21.212Z,4.60
2023-02-21T07:11:48.207Z,4.47
2023-02-21T07:14:15.240Z,2.85
2023-02-21T07:16:42.121Z,2.20
2023-02-21T07:19:09.122Z,2.03
2023-02-21T07:21:36.415Z,1.80
2023-02-21T07:24:03.260Z,2.10
2023-02-21T07:26:30.170Z,1.90
2023-02-21T07:28:57.124Z,1.73
2023-02-21T07:31:24.308Z,1.83
2023-02-21T07:33:51.280Z,1.90
2023-02-21T07:36:18.339Z,1.50
2023-02-21T07:38:45.296Z,4.03
2023-02-21T07:41:14.314Z,4.05
2023-02-21T07:43:41.431Z,4.78
2023-02-21T07:46:15.120Z,4.00
2023-02-21T07:48:42.066Z,4.37
2023-02-21T07:51:09.737Z,3.72
2023-02-21T07:53:36.921Z,3.70
2023-02-21T07:56:04.953Z,4.03
2023-02-21T07:58:32.645Z,3.95
2023-02-21T08:00:59.644Z,2.12
2023-02-21T08:03:26.506Z,2.20
2023-02-21T08:05:53.366Z,1.90
2023-02-21T08:08:20.242Z,1.77
2023-02-21T08:10:47.158Z,1.70
2023-02-21T08:13:14.013Z,1.95
2023-02-21T08:15:40.952Z,1.80
2023-02-21T08:18:24.404Z,2.87
2023-02-21T08:20:52.607Z,2.45
2023-02-21T08:23:19.943Z,2.33
2023-02-21T08:25:47.426Z,2.17
2023-02-21T08:28:14.861Z,1.90
2023-02-21T08:30:41.865Z,2.25
2023-02-21T08:33:08.967Z,1.98
2023-02-21T08:35:35.866Z,1.85
2023-02-21T08:38:04.145Z,2.37
2023-02-21T08:40:32.192Z,2.12
2023-02-21T08:43:00.581Z,2.25
2023-02-21T08:45:28.549Z,1.90
2023-02-21T08:47:55.942Z,2.45
2023-02-21T08:50:24.586Z,2.08
2023-02-21T08:52:51.746Z,2.28
2023-02-21T08:55:19.904Z,2.03
2023-02-21T08:57:50.748Z,2.12
2023-02-21T09:00:19.212Z,1.67
2023-02-21T09:02:46.152Z,1.90
2023-02-21T09:05:15.946Z,1.83
2023-02-21T09:07:42.820Z,1.95
2023-02-21T09:10:10.984Z,2.40
2023-02-21T09:12:38.704Z,2.05
2023-02-21T09:15:06.569Z,2.33
2023-02-21T09:17:34.192Z,2.35
2023-02-21T09:20:02.465Z,2.00
2023-02-21T09:22:29.373Z,1.90
2023-02-21T09:24:56.295Z,2.20
2023-02-21T09:27:36.500Z,2.05
2023-02-21T09:30:08.928Z,2.42
2023-02-21T09:32:36.889Z,1.95
2023-02-21T09:35:04.150Z,1.87
2023-02-21T09:37:31.230Z,1.92
2023-02-21T09:39:58.471Z,2.05
2023-02-21T09:42:30.197Z,1.60
2023-02-21T09:44:57.133Z,1.48
2023-02-21T09:47:31.144Z,1.70
2023-02-21T09:50:13.273Z,1.60
2023-02-21T09:52:40.890Z,1.50
2023-02-21T09:55:13.720Z,1.50
2023-02-21T09:57:40.689Z,1.77
2023-02-21T10:00:17.756Z,1.80
2023-02-21T10:03:05.076Z,1.95
2023-02-21T10:05:44.939Z,2.10
2023-02-21T10:08:37.316Z,1.77
2023-02-21T10:11:28.816Z,1.77
2023-02-21T10:14:03.545Z,1.30
2023-02-21T10:16:44.670Z,1.83
2023-02-21T10:19:31.433Z,1.50
2023-02-21T10:22:01.396Z,1.60
2023-02-21T10:24:28.945Z,1.52
2023-02-21T10:27:16.172Z,1.30
2023-02-21T10:29:56.912Z,1.48
2023-02-21T10:32:25.064Z,1.42
2023-02-21T10:34:52.287Z,1.42
2023-02-21T10:37:41.718Z,1.20
2023-02-21T10:40:44.051Z,1.60
2023-02-21T10:43:23.891Z,1.12
2023-02-21T10:46:02.168Z,1.50
2023-02-21T10:48:35.172Z,1.40
2023-02-21T10:51:06.764Z,1.33
2023-02-21T10:53:36.813Z,1.40
2023-02-21T10:56:10.101Z,1.23
2023-02-21T10:58:37.536Z,1.23
2023-02-21T11:01:25.594Z,1.40
2023-02-21T11:04:05.042Z,1.50
2023-02-21T11:06:31.868Z,1.17
2023-02-21T11:08:59.894Z,1.55
2023-02-21T11:11:37.454Z,1.60
2023-02-21T11:14:19.346Z,1.67
2023-02-21T11:16:46.180Z,1.42
2023-02-21T11:19:14.630Z,1.40
2023-02-21T11:21:47.223Z,1.80
2023-02-21T11:24:14.134Z,1.70
2023-02-21T11:26:48.907Z,1.90
2023-02-21T11:29:19.026Z,2.03
2023-02-21T11:31:46.201Z,1.87
2023-02-21T11:34:14.633Z,2.00
2023-02-21T11:36:44.292Z,2.17
2023-02-21T11:39:18.946Z,2.15
2023-02-21T11:41:53.785Z,2.05
2023-02-21T11:44:28.042Z,2.20
2023-02-21T11:47:24.394Z,2.50
2023-02-21T11:50:28.156Z,3.08
2023-02-21T11:53:22.682Z,1.77
2023-02-21T11:56:02.683Z,2.12
2023-02-21T11:58:39.142Z,1.95
2023-02-21T12:01:16.393Z,2.10
2023-02-21T12:04:15.115Z,2.20
2023-02-21T12:06:50.268Z,2.53
2023-02-21T12:09:23.307Z,1.98
2023-02-21T12:12:09.403Z,2.40
2023-02-21T12:14:42.047Z,2.22
2023-02-21T12:17:20.208Z,1.80
2023-02-21T12:19:52.938Z,2.25
2023-02-21T12:22:46.713Z,1.90
2023-02-21T12:25:13.869Z,1.77
2023-02-21T12:27:58.913Z,2.15
2023-02-21T12:30:40.771Z,1.85
2023-02-21T12:33:25.068Z,1.90
2023-02-21T12:36:12.397Z,2.12
2023-02-21T12:39:00.914Z,1.92
2023-02-21T12:42:01.777Z,2.00
2023-02-21T12:45:07.209Z,1.55
2023-02-21T12:47:39.942Z,1.52
2023-02-21T12:50:15.761Z,1.50
2023-02-21T12:52:55.021Z,1.58
2023-02-21T12:55:25.302Z,1.90
2023-02-21T12:57:57.276Z,1.45
2023-02-21T13:00:34.232Z,1.52
2023-02-21T13:03:38.888Z,1.20
2023-02-21T13:06:31.524Z,1.42
2023-02-21T13:09:17.685Z,1.25
2023-02-21T13:11:55.557Z,1.45
2023-02-21T13:14:37.539Z,1.62
2023-02-21T13:17:04.469Z,1.37
2023-02-21T13:19:50.024Z,1.90
2023-02-21T13:23:13.152Z,1.35
2023-02-21T13:26:05.052Z,1.50
2023-02-21T13:28:36.659Z,1.45
2023-02-21T13:31:05.659Z,1.70
2023-02-21T13:33:48.940Z,1.50
2023-02-21T13:36:33.330Z,1.50
2023-02-21T13:39:11.506Z,1.40
2023-02-21T13:41:42.775Z,1.60
2023-02-21T13:44:26.986Z,1.40
2023-02-21T13:46:54.798Z,1.45
2023-02-21T13:49:42.961Z,1.40
2023-02-21T13:52:22.648Z,1.20
2023-02-21T13:55:21.257Z,1.40
2023-02-21T13:58:01.134Z,1.45
2023-02-21T14:00:27.938Z,1.55
2023-02-21T14:02:56.742Z,1.30
2023-02-21T14:05:24.298Z,1.35
2023-02-21T14:08:03.665Z,1.52
2023-02-21T14:10:34.769Z,1.50
2023-02-21T14:13:05.086Z,1.25
2023-02-21T14:15:46.281Z,1.35
2023-02-21T14:18:20.657Z,1.42
2023-02-21T14:20:49.748Z,1.40
2023-02-21T14:23:21.920Z,1.90
2023-02-21T14:26:01.347Z,1.40
2023-02-21T14:28:51.530Z,1.27
2023-02-21T14:31:48.398Z,1.20
2023-02-21T14:34:20.733Z,1.48
2023-02-21T14:36:50.103Z,1.77
2023-02-21T14:39:17.699Z,1.50
2023-02-21T14:41:47.171Z,1.40
2023-02-21T14:44:26.503Z,1.37
2023-02-21T14:47:25.768Z,1.48
2023-02-21T14:49:59.480Z,1.30
2023-02-21T14:52:41.714Z,1.48
2023-02-21T14:55:17.897Z,1.48
2023-02-21T14:58:14.002Z,1.10
2023-02-21T15:01:01.731Z,1.40
2023-02-21T15:03:37.184Z,1.30
2023-02-21T15:06:10.044Z,1.20
2023-02-21T15:08:47.465Z,1.20
2023-02-21T15:11:29.416Z,1.37
2023-02-21T15:14:25.450Z,1.40
2023-02-21T15:17:00.742Z,1.48
2023-02-21T15:19:35.964Z,1.30
2023-02-21T15:22:16.862Z,1.60
2023-02-21T15:25:08.445Z,1.40
2023-02-21T15:27:37.252Z,1.37
2023-02-21T15:30:14.518Z,1.10
2023-02-21T15:35:12.934Z,1.60
2023-02-21T15:37:41.016Z,1.50
2023-02-21T15:40:19.631Z,1.40
2023-02-21T15:42:48.197Z,1.70
2023-02-21T15:45:23.139Z,1.37
2023-02-21T15:47:53.628Z,1.48
2023-02-21T15:50:36.499Z,1.45
2023-02-21T15:53:14.183Z,1.50
2023-02-21T15:55:41.207Z,1.70
2023-02-21T15:58:09.054Z,1.60
2023-02-21T16:00:41.339Z,1.77
2023-02-21T16:03:33.299Z,1.48
2023-02-21T16:06:20.388Z,1.80
2023-02-21T16:09:02.017Z,2.00
2023-02-21T16:11:44.216Z,1.70
2023-02-21T16:14:39.495Z,2.05
2023-02-21T16:17:25.913Z,2.03
2023-02-21T16:19:56.264Z,1.75
2023-02-21T16:22:29.975Z,1.70
2023-02-21T16:25:12.191Z,2.00
2023-02-21T16:27:40.873Z,2.10
2023-02-21T16:30:13.069Z,2.10
2023-02-21T16:32:41.821Z,2.10
2023-02-21T16:35:16.942Z,1.80
2023-02-21T16:37:44.821Z,2.03
2023-02-21T16:40:16.527Z,1.87
2023-02-21T16:42:43.391Z,1.90
2023-02-21T16:45:10.268Z,1.60
2023-02-21T16:47:39.153Z,2.03
2023-02-21T16:50:10.315Z,1.85
2023-02-21T16:52:37.206Z,2.10
2023-02-21T16:55:04.225Z,1.90
2023-02-21T16:57:31.131Z,1.83
2023-02-21T17:00:01.115Z,1.70
2023-02-21T17:02:28.003Z,1.90
2023-02-21T17:04:54.839Z,2.10
2023-02-21T17:07:24.428Z,2.10
2023-02-21T17:09:53.655Z,2.10
2023-02-21T17:12:20.689Z,1.80
2023-02-21T17:14:47.588Z,1.80
2023-02-21T17:17:15.491Z,1.92
2023-02-21T17:19:42.364Z,1.85
2023-02-21T17:22:09.252Z,2.33
2023-02-21T17:24:36.948Z,2.42
2023-02-21T17:27:03.934Z,1.87
2023-02-21T17:29:30.813Z,2.05
2023-02-21T17:31:58.902Z,1.95
2023-02-21T17:34:25.816Z,2.22
2023-02-21T17:36:53.574Z,2.00
2023-02-21T17:39:21.352Z,1.90
2023-02-21T17:41:49.296Z,1.75
2023-02-21T17:44:18.172Z,2.22
2023-02-21T17:46:53.071Z,2.25
2023-02-21T17:49:22.327Z,2.22
2023-02-21T17:51:49.571Z,2.30
2023-02-21T17:54:18.850Z,2.03
2023-02-21T17:56:45.760Z,2.10
2023-02-21T17:59:12.718Z,2.40
2023-02-21T18:01:41.549Z,2.30
2023-02-21T18:04:09.286Z,2.15
2023-02-21T18:06:36.373Z,2.60
2023-02-21T18:09:05.983Z,3.03
2023-02-21T18:11:34.726Z,2.90
2023-02-21T18:14:01.888Z,2.60
2023-02-21T18:16:29.207Z,3.10
2023-02-21T18:18:56.188Z,2.97
2023-02-21T18:21:24.084Z,2.87
2023-02-21T18:23:51.968Z,2.90
2023-02-21T18:26:19.301Z,2.95
2023-02-21T18:28:46.224Z,3.95
2023-02-21T18:31:18.331Z,3.03
2023-02-21T18:33:45.473Z,3.75
2023-02-21T18:36:12.517Z,3.70
2023-02-21T18:38:41.117Z,3.87
2023-02-21T18:41:15.763Z,4.55
2023-02-21T18:43:44.265Z,3.75
2023-02-21T18:46:12.875Z,3.42
2023-02-21T18:48:43.242Z,3.90
2023-02-21T18:51:12.001Z,3.17
2023-02-21T18:53:39.269Z,3.75
2023-02-21T18:56:11.241Z,3.62
2023-02-21T18:58:38.840Z,3.50
2023-02-21T19:01:06.681Z,3.72
2023-02-21T19:03:33.904Z,3.65
2023-02-21T19:06:00.995Z,3.72
2023-02-21T19:08:28.025Z,3.22
2023-02-21T19:10:54.921Z,3.40
2023-02-21T19:13:21.853Z,3.40
2023-02-21T19:15:48.902Z,3.25
2023-02-21T19:18:17.085Z,3.50
2023-02-21T19:20:43.962Z,3.70
2023-02-21T19:23:12.208Z,3.20
2023-02-21T19:25:39.773Z,3.00
2023-02-21T19:28:07.283Z,3.35
2023-02-21T19:30:36.991Z,3.67
2023-02-21T19:33:06.098Z,3.67
2023-02-21T19:35:34.122Z,3.30
2023-02-21T19:38:05.839Z,3.40
2023-02-21T19:40:33.248Z,3.03
2023-02-21T19:43:00.157Z,3.15
2023-02-21T19:45:27.328Z,3.10
2023-02-21T19:47:54.270Z,3.55
2023-02-21T19:50:21.176Z,3.90
2023-02-21T19:52:58.863Z,3.40
2023-02-21T19:55:27.105Z,3.15
2023-02-21T19:57:53.981Z,3.42
2023-02-21T20:00:20.963Z,2.87
2023-02-21T20:02:49.609Z,3.40
2023-02-21T20:05:17.452Z,3.08
2023-02-21T20:07:44.379Z,3.45
2023-02-21T20:10:12.261Z,3.50
2023-02-21T20:12:39.138Z,3.15
2023-02-21T20:15:07.513Z,3.83
2023-02-21T20:17:37.931Z,3.47
2023-02-21T20:20:07.593Z,3.40
2023-02-21T20:22:34.474Z,3.33
2023-02-21T20:25:02.166Z,3.75
2023-02-21T20:27:29.432Z,3.85
2023-02-21T20:29:56.936Z,4.10
2023-02-21T20:32:24.431Z,3.42
2023-02-21T20:34:54.428Z,3.45
2023-02-21T20:37:21.831Z,3.78
2023-02-21T20:39:50.082Z,3.10
2023-02-21T20:42:17.551Z,3.17
2023-02-21T20:44:44.621Z,3.03
2023-02-21T20:47:15.909Z,2.95
2023-02-21T20:49:44.283Z,3.05
2023-02-21T20:52:11.614Z,2.87
2023-02-21T20:54:38.630Z,3.00
2023-02-21T20:57:05.708Z,3.85
2023-02-21T20:59:36.433Z,3.60
2023-02-21T21:02:04.351Z,3.72
2023-02-21T21:04:36.792Z,3.95
2023-02-21T21:07:20.090Z,4.35
2023-02-21T21:09:47.711Z,4.20
2023-02-21T21:12:17.441Z,4.05
2023-02-21T21:14:46.591Z,3.60
2023-02-21T21:17:16.329Z,3.35
2023-02-21T21:19:44.991Z,3.47
2023-02-21T21:22:15.225Z,3.70
2023-02-21T21:24:42.494Z,3.55
2023-02-21T21:27:14.894Z,3.85
2023-02-21T21:29:43.654Z,3.30
2023-02-21T21:32:15.009Z,3.65
2023-02-21T21:34:46.846Z,3.62
2023-02-21T21:37:14.680Z,3.20
2023-02-21T21:39:49.478Z,3.25
2023-02-21T21:42:20.241Z,3.70
2023-02-21T21:44:55.161Z,3.10
2023-02-21T21:47:26.045Z,3.45
2023-02-21T21:49:53.247Z,3.35
2023-02-21T21:52:21.604Z,3.55
2023-02-21T21:54:48.747Z,3.45
2023-02-21T21:57:17.667Z,3.10
2023-02-21T21:59:45.178Z,2.90
2023-02-21T22:02:12.341Z,3.55
2023-02-21T22:04:39.816Z,3.50
2023-02-21T22:07:10.491Z,3.42
2023-02-21T22:09:37.432Z,3.47
2023-02-21T22:12:05.181Z,3.22
2023-02-21T22:14:32.313Z,3.10
2023-02-21T22:16:59.172Z,3.25
2023-02-21T22:21:57.115Z,3.20
2023-02-21T22:24:25.196Z,2.83
2023-02-21T22:26:53.650Z,3.20
2023-02-21T22:29:22.649Z,3.10
2023-02-21T22:31:52.226Z,3.05
2023-02-21T22:34:25.301Z,3.22
2023-02-21T22:36:54.570Z,2.92
2023-02-21T22:39:22.420Z,2.92
2023-02-21T22:41:49.706Z,2.85
2023-02-21T22:44:16.824Z,2.97
2023-02-21T22:46:46.808Z,2.62
2023-02-21T22:49:17.313Z,3.20
2023-02-21T22:51:44.703Z,2.70
2023-02-21T22:54:14.667Z,2.42
2023-02-21T22:56:51.186Z,2.90
2023-02-21T22:59:24.505Z,2.60
2023-02-21T23:01:51.610Z,3.20
2023-02-21T23:04:25.966Z,2.62
2023-02-21T23:06:58.627Z,3.00
2023-02-21T23:09:27.369Z,2.70
2023-02-21T23:11:58.513Z,3.22
2023-02-21T23:14:26.470Z,3.20
2023-02-21T23:17:00.430Z,2.95
2023-02-21T23:19:29.324Z,3.08
2023-02-21T23:21:59.540Z,3.00
2023-02-21T23:24:28.310Z,3.08
2023-02-21T23:26:55.242Z,3.00
2023-02-21T23:31:52.363Z,2.83
2023-02-21T23:34:19.966Z,2.90
2023-02-21T23:36:49.323Z,2.97
2023-02-21T23:39:16.299Z,3.15
2023-02-21T23:41:49.124Z,3.10
2023-02-21T23:44:16.473Z,2.80
2023-02-21T23:46:44.720Z,3.05
2023-02-21T23:49:15.829Z,3.30
2023-02-21T23:51:44.036Z,3.05
2023-02-21T23:54:11.769Z,2.75
2023-02-21T23:56:40.369Z,2.80
2023-02-21T23:59:07.522Z,3.12
